sensor_id;sensor_type;location;lat;lon;timestamp;P1;durP1;ratioP1;P2;durP2;ratioP2
20421;SDS011;10370;53.102;18.034;2023-12-29T00:02:03;16.23;;;8.60;;
20421;SDS011;10370;53.102;18.034;2023-12-29T00:07:26;12.77;;;7.65;;
20421;SDS011;10370;53.102;18.034;2023-12-29T00:12:49;16.10;;;7.70;;
20421;SDS011;10370;53.102;18.034;2023-12-29T00:18:11;15.30;;;8.18;;
20421;SDS011;10370;53.102;18.034;2023-12-29T00:23:34;16.20;;;7.72;;
20421;SDS011;10370;53.102;18.034;2023-12-29T00:28:57;15.23;;;7.60;;
20421;SDS011;10370;53.102;18.034;2023-12-29T00:34:20;12.50;;;7.57;;
20421;SDS011;10370;53.102;18.034;2023-12-29T00:39:43;13.48;;;7.28;;
20421;SDS011;10370;53.102;18.034;2023-12-29T00:45:05;16.23;;;7.80;;
20421;SDS011;10370;53.102;18.034;2023-12-29T00:50:29;14.27;;;7.15;;
20421;SDS011;10370;53.102;18.034;2023-12-29T00:55:51;14.75;;;7.38;;
20421;SDS011;10370;53.102;18.034;2023-12-29T01:01:14;15.30;;;7.55;;
20421;SDS011;10370;53.102;18.034;2023-12-29T01:06:37;16.55;;;7.00;;
20421;SDS011;10370;53.102;18.034;2023-12-29T01:11:59;15.90;;;7.28;;
20421;SDS011;10370;53.102;18.034;2023-12-29T01:17:22;12.15;;;7.13;;
20421;SDS011;10370;53.102;18.034;2023-12-29T01:22:51;17.88;;;7.72;;
20421;SDS011;10370;53.102;18.034;2023-12-29T01:28:14;12.23;;;6.97;;
20421;SDS011;10370;53.102;18.034;2023-12-29T01:33:36;14.77;;;7.53;;
20421;SDS011;10370;53.102;18.034;2023-12-29T01:38:59;12.07;;;6.90;;
20421;SDS011;10370;53.102;18.034;2023-12-29T01:44:24;12.23;;;6.80;;
20421;SDS011;10370;53.102;18.034;2023-12-29T01:49:46;11.60;;;7.13;;
20421;SDS011;10370;53.102;18.034;2023-12-29T01:55:12;13.82;;;6.78;;
20421;SDS011;10370;53.102;18.034;2023-12-29T02:00:39;13.15;;;6.93;;
20421;SDS011;10370;53.102;18.034;2023-12-29T02:06:02;13.20;;;7.23;;
20421;SDS011;10370;53.102;18.034;2023-12-29T02:11:26;12.65;;;6.95;;
20421;SDS011;10370;53.102;18.034;2023-12-29T02:17:07;12.88;;;6.90;;
20421;SDS011;10370;53.102;18.034;2023-12-29T02:22:38;11.47;;;6.60;;
20421;SDS011;10370;53.102;18.034;2023-12-29T02:28:04;13.40;;;7.47;;
20421;SDS011;10370;53.102;18.034;2023-12-29T02:33:41;11.38;;;6.88;;
20421;SDS011;10370;53.102;18.034;2023-12-29T02:39:07;11.75;;;6.80;;
20421;SDS011;10370;53.102;18.034;2023-12-29T02:44:30;14.02;;;6.70;;
20421;SDS011;10370;53.102;18.034;2023-12-29T02:49:53;12.45;;;7.07;;
20421;SDS011;10370;53.102;18.034;2023-12-29T02:55:16;12.23;;;7.00;;
20421;SDS011;10370;53.102;18.034;2023-12-29T03:00:39;12.70;;;6.53;;
20421;SDS011;10370;53.102;18.034;2023-12-29T03:06:02;13.05;;;7.40;;
20421;SDS011;10370;53.102;18.034;2023-12-29T03:11:25;13.45;;;6.80;;
20421;SDS011;10370;53.102;18.034;2023-12-29T03:16:47;11.00;;;6.78;;
20421;SDS011;10370;53.102;18.034;2023-12-29T03:22:10;11.80;;;6.67;;
20421;SDS011;10370;53.102;18.034;2023-12-29T03:27:33;9.75;;;6.60;;
20421;SDS011;10370;53.102;18.034;2023-12-29T03:32:55;11.38;;;6.35;;
20421;SDS011;10370;53.102;18.034;2023-12-29T03:38:18;8.48;;;5.97;;
20421;SDS011;10370;53.102;18.034;2023-12-29T03:43:41;9.45;;;6.28;;
20421;SDS011;10370;53.102;18.034;2023-12-29T03:49:05;9.77;;;5.35;;
20421;SDS011;10370;53.102;18.034;2023-12-29T03:54:27;10.82;;;6.05;;
20421;SDS011;10370;53.102;18.034;2023-12-29T03:59:50;10.00;;;5.22;;
20421;SDS011;10370;53.102;18.034;2023-12-29T04:05:13;11.70;;;5.50;;
20421;SDS011;10370;53.102;18.034;2023-12-29T04:10:35;10.70;;;5.30;;
20421;SDS011;10370;53.102;18.034;2023-12-29T04:15:58;8.50;;;5.05;;
20421;SDS011;10370;53.102;18.034;2023-12-29T04:21:21;8.82;;;5.55;;
20421;SDS011;10370;53.102;18.034;2023-12-29T04:26:43;8.60;;;5.32;;
20421;SDS011;10370;53.102;18.034;2023-12-29T04:32:06;10.70;;;5.35;;
20421;SDS011;10370;53.102;18.034;2023-12-29T04:37:28;9.55;;;5.18;;
20421;SDS011;10370;53.102;18.034;2023-12-29T04:42:51;8.02;;;5.20;;
20421;SDS011;10370;53.102;18.034;2023-12-29T04:48:14;8.57;;;5.13;;
20421;SDS011;10370;53.102;18.034;2023-12-29T04:53:36;7.88;;;4.82;;
20421;SDS011;10370;53.102;18.034;2023-12-29T04:58:59;7.60;;;4.80;;
20421;SDS011;10370;53.102;18.034;2023-12-29T05:04:22;7.10;;;4.45;;
20421;SDS011;10370;53.102;18.034;2023-12-29T05:09:46;7.78;;;4.60;;
20421;SDS011;10370;53.102;18.034;2023-12-29T05:15:08;7.13;;;4.53;;
20421;SDS011;10370;53.102;18.034;2023-12-29T05:20:31;8.05;;;3.97;;
20421;SDS011;10370;53.102;18.034;2023-12-29T05:25:55;7.75;;;4.40;;
20421;SDS011;10370;53.102;18.034;2023-12-29T05:31:18;7.32;;;3.97;;
20421;SDS011;10370;53.102;18.034;2023-12-29T05:36:40;9.27;;;4.18;;
20421;SDS011;10370;53.102;18.034;2023-12-29T05:42:04;7.93;;;4.28;;
20421;SDS011;10370;53.102;18.034;2023-12-29T05:47:26;7.07;;;4.30;;
20421;SDS011;10370;53.102;18.034;2023-12-29T05:52:49;8.23;;;4.35;;
20421;SDS011;10370;53.102;18.034;2023-12-29T05:58:13;8.13;;;4.40;;
20421;SDS011;10370;53.102;18.034;2023-12-29T06:03:36;6.97;;;4.10;;
20421;SDS011;10370;53.102;18.034;2023-12-29T06:08:59;8.55;;;4.53;;
20421;SDS011;10370;53.102;18.034;2023-12-29T06:14:22;6.88;;;3.95;;
20421;SDS011;10370;53.102;18.034;2023-12-29T06:19:45;9.32;;;4.50;;
20421;SDS011;10370;53.102;18.034;2023-12-29T06:25:09;5.28;;;4.03;;
20421;SDS011;10370;53.102;18.034;2023-12-29T06:30:33;6.38;;;4.47;;
20421;SDS011;10370;53.102;18.034;2023-12-29T06:35:56;7.00;;;4.10;;
20421;SDS011;10370;53.102;18.034;2023-12-29T06:41:19;6.93;;;3.85;;
20421;SDS011;10370;53.102;18.034;2023-12-29T06:46:42;9.07;;;4.30;;
20421;SDS011;10370;53.102;18.034;2023-12-29T06:52:05;6.38;;;4.32;;
20421;SDS011;10370;53.102;18.034;2023-12-29T06:57:28;6.75;;;4.30;;
20421;SDS011;10370;53.102;18.034;2023-12-29T07:02:54;7.15;;;4.22;;
20421;SDS011;10370;53.102;18.034;2023-12-29T07:08:17;11.80;;;6.47;;
20421;SDS011;10370;53.102;18.034;2023-12-29T07:13:40;14.90;;;6.72;;
20421;SDS011;10370;53.102;18.034;2023-12-29T07:19:03;14.63;;;7.70;;
20421;SDS011;10370;53.102;18.034;2023-12-29T07:24:27;7.18;;;4.38;;
20421;SDS011;10370;53.102;18.034;2023-12-29T07:29:49;7.75;;;5.28;;
20421;SDS011;10370;53.102;18.034;2023-12-29T07:35:12;7.30;;;4.57;;
20421;SDS011;10370;53.102;18.034;2023-12-29T07:40:38;8.85;;;4.40;;
20421;SDS011;10370;53.102;18.034;2023-12-29T07:46:01;9.55;;;4.85;;
20421;SDS011;10370;53.102;18.034;2023-12-29T07:51:24;6.45;;;4.00;;
20421;SDS011;10370;53.102;18.034;2023-12-29T07:56:47;8.43;;;3.72;;
20421;SDS011;10370;53.102;18.034;2023-12-29T08:02:09;9.02;;;4.65;;
20421;SDS011;10370;53.102;18.034;2023-12-29T08:07:32;7.65;;;4.10;;
20421;SDS011;10370;53.102;18.034;2023-12-29T08:12:55;5.95;;;3.85;;
20421;SDS011;10370;53.102;18.034;2023-12-29T08:18:17;11.88;;;3.90;;
20421;SDS011;10370;53.102;18.034;2023-12-29T08:23:41;7.40;;;4.28;;
20421;SDS011;10370;53.102;18.034;2023-12-29T08:29:03;27.05;;;18.33;;
20421;SDS011;10370;53.102;18.034;2023-12-29T08:34:26;10.93;;;6.65;;
20421;SDS011;10370;53.102;18.034;2023-12-29T08:39:49;8.40;;;4.90;;
20421;SDS011;10370;53.102;18.034;2023-12-29T08:45:11;7.13;;;4.55;;
20421;SDS011;10370;53.102;18.034;2023-12-29T08:50:34;13.10;;;6.47;;
20421;SDS011;10370;53.102;18.034;2023-12-29T08:55:57;10.35;;;3.83;;
20421;SDS011;10370;53.102;18.034;2023-12-29T09:01:20;6.45;;;3.40;;
20421;SDS011;10370;53.102;18.034;2023-12-29T09:06:43;6.07;;;4.00;;
20421;SDS011;10370;53.102;18.034;2023-12-29T09:12:06;7.38;;;3.60;;
20421;SDS011;10370;53.102;18.034;2023-12-29T09:17:28;7.57;;;4.07;;
20421;SDS011;10370;53.102;18.034;2023-12-29T09:22:51;5.55;;;3.28;;
20421;SDS011;10370;53.102;18.034;2023-12-29T09:28:15;8.07;;;3.65;;
20421;SDS011;10370;53.102;18.034;2023-12-29T09:33:38;5.30;;;3.13;;
20421;SDS011;10370;53.102;18.034;2023-12-29T09:39:00;6.72;;;3.45;;
20421;SDS011;10370;53.102;18.034;2023-12-29T09:44:24;4.90;;;2.88;;
20421;SDS011;10370;53.102;18.034;2023-12-29T09:49:51;4.43;;;2.35;;
20421;SDS011;10370;53.102;18.034;2023-12-29T09:55:16;5.00;;;2.78;;
20421;SDS011;10370;53.102;18.034;2023-12-29T10:00:39;3.42;;;2.22;;
20421;SDS011;10370;53.102;18.034;2023-12-29T10:06:04;5.97;;;2.60;;
20421;SDS011;10370;53.102;18.034;2023-12-29T10:11:30;7.15;;;3.30;;
20421;SDS011;10370;53.102;18.034;2023-12-29T10:16:59;8.48;;;3.13;;
20421;SDS011;10370;53.102;18.034;2023-12-29T10:28:15;4.40;;;2.50;;
20421;SDS011;10370;53.102;18.034;2023-12-29T10:33:40;4.60;;;2.70;;
20421;SDS011;10370;53.102;18.034;2023-12-29T10:39:06;4.28;;;2.22;;
20421;SDS011;10370;53.102;18.034;2023-12-29T10:44:32;4.15;;;2.25;;
20421;SDS011;10370;53.102;18.034;2023-12-29T10:49:58;5.65;;;3.05;;
20421;SDS011;10370;53.102;18.034;2023-12-29T10:55:22;4.72;;;2.55;;
20421;SDS011;10370;53.102;18.034;2023-12-29T11:00:46;6.30;;;3.60;;
20421;SDS011;10370;53.102;18.034;2023-12-29T11:06:10;4.47;;;2.60;;
20421;SDS011;10370;53.102;18.034;2023-12-29T11:11:33;3.72;;;2.45;;
20421;SDS011;10370;53.102;18.034;2023-12-29T11:16:58;5.57;;;3.00;;
20421;SDS011;10370;53.102;18.034;2023-12-29T11:22:23;5.82;;;2.47;;
20421;SDS011;10370;53.102;18.034;2023-12-29T11:27:48;3.75;;;2.10;;
20421;SDS011;10370;53.102;18.034;2023-12-29T11:33:17;3.42;;;2.20;;
20421;SDS011;10370;53.102;18.034;2023-12-29T11:39:02;4.30;;;2.13;;
20421;SDS011;10370;53.102;18.034;2023-12-29T11:44:46;6.85;;;3.50;;
20421;SDS011;10370;53.102;18.034;2023-12-29T11:50:10;9.70;;;4.25;;
20421;SDS011;10370;53.102;18.034;2023-12-29T11:55:36;5.20;;;1.90;;
20421;SDS011;10370;53.102;18.034;2023-12-29T12:01:00;3.80;;;2.33;;
20421;SDS011;10370;53.102;18.034;2023-12-29T12:06:38;7.07;;;2.50;;
20421;SDS011;10370;53.102;18.034;2023-12-29T12:12:02;5.40;;;2.40;;
20421;SDS011;10370;53.102;18.034;2023-12-29T12:17:29;6.28;;;3.03;;
20421;SDS011;10370;53.102;18.034;2023-12-29T12:22:57;5.75;;;2.72;;
20421;SDS011;10370;53.102;18.034;2023-12-29T12:28:34;4.32;;;2.30;;
20421;SDS011;10370;53.102;18.034;2023-12-29T12:33:59;5.25;;;2.63;;
20421;SDS011;10370;53.102;18.034;2023-12-29T12:39:22;8.18;;;3.90;;
20421;SDS011;10370;53.102;18.034;2023-12-29T12:45:04;4.32;;;2.28;;
20421;SDS011;10370;53.102;18.034;2023-12-29T12:50:33;3.38;;;2.33;;
20421;SDS011;10370;53.102;18.034;2023-12-29T12:55:55;7.40;;;2.92;;
20421;SDS011;10370;53.102;18.034;2023-12-29T13:01:18;3.97;;;2.35;;
20421;SDS011;10370;53.102;18.034;2023-12-29T13:06:42;5.47;;;2.50;;
20421;SDS011;10370;53.102;18.034;2023-12-29T13:12:17;5.68;;;2.70;;
20421;SDS011;10370;53.102;18.034;2023-12-29T13:17:41;8.43;;;3.70;;
20421;SDS011;10370;53.102;18.034;2023-12-29T13:23:13;6.18;;;3.15;;
20421;SDS011;10370;53.102;18.034;2023-12-29T13:28:36;10.60;;;2.67;;
20421;SDS011;10370;53.102;18.034;2023-12-29T13:34:01;8.13;;;2.78;;
20421;SDS011;10370;53.102;18.034;2023-12-29T13:39:29;6.38;;;3.90;;
20421;SDS011;10370;53.102;18.034;2023-12-29T13:45:03;8.60;;;4.30;;
20421;SDS011;10370;53.102;18.034;2023-12-29T13:50:27;9.80;;;5.10;;
20421;SDS011;10370;53.102;18.034;2023-12-29T13:55:50;12.02;;;4.93;;
20421;SDS011;10370;53.102;18.034;2023-12-29T14:01:12;6.97;;;3.47;;
20421;SDS011;10370;53.102;18.034;2023-12-29T14:06:43;7.23;;;3.80;;
20421;SDS011;10370;53.102;18.034;2023-12-29T14:12:23;6.07;;;3.30;;
20421;SDS011;10370;53.102;18.034;2023-12-29T14:17:47;5.72;;;2.95;;
20421;SDS011;10370;53.102;18.034;2023-12-29T14:28:32;7.18;;;3.90;;
20421;SDS011;10370;53.102;18.034;2023-12-29T14:33:55;9.85;;;4.28;;
20421;SDS011;10370;53.102;18.034;2023-12-29T14:39:18;12.38;;;6.22;;
20421;SDS011;10370;53.102;18.034;2023-12-29T14:44:40;8.47;;;5.10;;
20421;SDS011;10370;53.102;18.034;2023-12-29T14:50:03;7.72;;;4.13;;
20421;SDS011;10370;53.102;18.034;2023-12-29T14:55:26;11.63;;;5.43;;
20421;SDS011;10370;53.102;18.034;2023-12-29T15:00:48;10.32;;;4.93;;
20421;SDS011;10370;53.102;18.034;2023-12-29T15:06:11;10.18;;;3.22;;
20421;SDS011;10370;53.102;18.034;2023-12-29T15:11:34;6.35;;;3.50;;
20421;SDS011;10370;53.102;18.034;2023-12-29T15:16:58;8.40;;;4.00;;
20421;SDS011;10370;53.102;18.034;2023-12-29T15:22:20;11.20;;;4.15;;
20421;SDS011;10370;53.102;18.034;2023-12-29T15:27:48;8.57;;;4.75;;
20421;SDS011;10370;53.102;18.034;2023-12-29T15:33:10;7.18;;;3.30;;
20421;SDS011;10370;53.102;18.034;2023-12-29T15:38:34;14.68;;;6.40;;
20421;SDS011;10370;53.102;18.034;2023-12-29T15:43:57;9.88;;;5.57;;
20421;SDS011;10370;53.102;18.034;2023-12-29T15:49:20;9.48;;;4.57;;
20421;SDS011;10370;53.102;18.034;2023-12-29T15:54:42;14.57;;;7.43;;
20421;SDS011;10370;53.102;18.034;2023-12-29T16:00:05;9.10;;;4.70;;
20421;SDS011;10370;53.102;18.034;2023-12-29T16:05:30;13.70;;;6.40;;
20421;SDS011;10370;53.102;18.034;2023-12-29T16:16:59;7.30;;;3.28;;
20421;SDS011;10370;53.102;18.034;2023-12-29T16:22:22;7.10;;;3.20;;
20421;SDS011;10370;53.102;18.034;2023-12-29T16:27:45;8.02;;;3.58;;
20421;SDS011;10370;53.102;18.034;2023-12-29T16:33:08;6.40;;;3.40;;
20421;SDS011;10370;53.102;18.034;2023-12-29T16:38:31;7.30;;;3.65;;
20421;SDS011;10370;53.102;18.034;2023-12-29T16:43:54;5.57;;;3.58;;
20421;SDS011;10370;53.102;18.034;2023-12-29T16:49:17;7.22;;;3.63;;
20421;SDS011;10370;53.102;18.034;2023-12-29T16:54:39;7.45;;;3.47;;
20421;SDS011;10370;53.102;18.034;2023-12-29T17:00:02;17.98;;;8.20;;
20421;SDS011;10370;53.102;18.034;2023-12-29T17:05:25;23.27;;;8.15;;
20421;SDS011;10370;53.102;18.034;2023-12-29T17:10:48;15.43;;;7.22;;
20421;SDS011;10370;53.102;18.034;2023-12-29T17:16:11;9.75;;;4.68;;
20421;SDS011;10370;53.102;18.034;2023-12-29T17:21:36;6.35;;;3.58;;
20421;SDS011;10370;53.102;18.034;2023-12-29T17:26:59;16.33;;;6.50;;
20421;SDS011;10370;53.102;18.034;2023-12-29T17:32:22;25.45;;;11.27;;
20421;SDS011;10370;53.102;18.034;2023-12-29T17:37:45;34.25;;;18.25;;
20421;SDS011;10370;53.102;18.034;2023-12-29T17:43:08;75.28;;;37.10;;
20421;SDS011;10370;53.102;18.034;2023-12-29T17:48:31;62.35;;;28.38;;
20421;SDS011;10370;53.102;18.034;2023-12-29T17:53:56;18.73;;;11.43;;
20421;SDS011;10370;53.102;18.034;2023-12-29T17:59:21;30.50;;;18.25;;
20421;SDS011;10370;53.102;18.034;2023-12-29T18:04:44;28.45;;;14.38;;
20421;SDS011;10370;53.102;18.034;2023-12-29T18:10:06;11.57;;;5.72;;
20421;SDS011;10370;53.102;18.034;2023-12-29T18:15:31;12.05;;;6.55;;
20421;SDS011;10370;53.102;18.034;2023-12-29T18:20:55;11.10;;;6.03;;
20421;SDS011;10370;53.102;18.034;2023-12-29T18:26:17;9.77;;;4.80;;
20421;SDS011;10370;53.102;18.034;2023-12-29T18:31:41;14.40;;;7.75;;
20421;SDS011;10370;53.102;18.034;2023-12-29T18:37:04;9.40;;;4.80;;
20421;SDS011;10370;53.102;18.034;2023-12-29T18:42:27;8.52;;;4.68;;
20421;SDS011;10370;53.102;18.034;2023-12-29T18:47:50;10.63;;;4.70;;
20421;SDS011;10370;53.102;18.034;2023-12-29T18:53:13;9.05;;;4.30;;
20421;SDS011;10370;53.102;18.034;2023-12-29T18:58:36;9.60;;;3.75;;
20421;SDS011;10370;53.102;18.034;2023-12-29T19:03:59;9.65;;;5.25;;
20421;SDS011;10370;53.102;18.034;2023-12-29T19:09:21;9.90;;;5.20;;
20421;SDS011;10370;53.102;18.034;2023-12-29T19:14:44;7.47;;;3.83;;
20421;SDS011;10370;53.102;18.034;2023-12-29T19:20:14;8.88;;;4.50;;
20421;SDS011;10370;53.102;18.034;2023-12-29T19:25:37;7.22;;;4.20;;
20421;SDS011;10370;53.102;18.034;2023-12-29T19:31:00;17.02;;;10.02;;
20421;SDS011;10370;53.102;18.034;2023-12-29T19:36:24;9.75;;;6.13;;
20421;SDS011;10370;53.102;18.034;2023-12-29T19:41:47;9.48;;;6.22;;
20421;SDS011;10370;53.102;18.034;2023-12-29T19:47:10;8.27;;;5.10;;
20421;SDS011;10370;53.102;18.034;2023-12-29T19:52:35;8.02;;;4.95;;
20421;SDS011;10370;53.102;18.034;2023-12-29T19:57:58;21.25;;;9.45;;
20421;SDS011;10370;53.102;18.034;2023-12-29T20:03:22;12.52;;;6.65;;
20421;SDS011;10370;53.102;18.034;2023-12-29T20:08:46;13.32;;;7.85;;
20421;SDS011;10370;53.102;18.034;2023-12-29T20:14:09;9.23;;;4.70;;
20421;SDS011;10370;53.102;18.034;2023-12-29T20:19:34;9.32;;;4.75;;
20421;SDS011;10370;53.102;18.034;2023-12-29T20:24:59;9.25;;;5.30;;
20421;SDS011;10370;53.102;18.034;2023-12-29T20:30:22;11.43;;;6.50;;
20421;SDS011;10370;53.102;18.034;2023-12-29T20:35:45;31.25;;;13.55;;
20421;SDS011;10370;53.102;18.034;2023-12-29T20:41:09;29.30;;;12.38;;
20421;SDS011;10370;53.102;18.034;2023-12-29T20:46:35;12.30;;;7.80;;
20421;SDS011;10370;53.102;18.034;2023-12-29T20:51:59;11.25;;;6.85;;
20421;SDS011;10370;53.102;18.034;2023-12-29T20:57:21;10.05;;;5.70;;
20421;SDS011;10370;53.102;18.034;2023-12-29T21:02:46;11.73;;;6.40;;
20421;SDS011;10370;53.102;18.034;2023-12-29T21:08:09;13.57;;;6.85;;
20421;SDS011;10370;53.102;18.034;2023-12-29T21:13:35;18.30;;;10.07;;
20421;SDS011;10370;53.102;18.034;2023-12-29T21:18:58;13.73;;;6.28;;
20421;SDS011;10370;53.102;18.034;2023-12-29T21:24:21;9.10;;;4.63;;
20421;SDS011;10370;53.102;18.034;2023-12-29T21:29:44;8.73;;;4.47;;
20421;SDS011;10370;53.102;18.034;2023-12-29T21:35:15;9.60;;;4.53;;
20421;SDS011;10370;53.102;18.034;2023-12-29T21:40:40;8.23;;;5.03;;
20421;SDS011;10370;53.102;18.034;2023-12-29T21:46:04;8.20;;;4.30;;
20421;SDS011;10370;53.102;18.034;2023-12-29T21:51:27;7.00;;;3.83;;
20421;SDS011;10370;53.102;18.034;2023-12-29T21:56:49;5.32;;;3.35;;
20421;SDS011;10370;53.102;18.034;2023-12-29T22:02:14;7.55;;;3.90;;
20421;SDS011;10370;53.102;18.034;2023-12-29T22:07:37;4.72;;;3.03;;
20421;SDS011;10370;53.102;18.034;2023-12-29T22:13:03;4.45;;;3.05;;
20421;SDS011;10370;53.102;18.034;2023-12-29T22:18:29;11.43;;;5.43;;
20421;SDS011;10370;53.102;18.034;2023-12-29T22:23:58;20.27;;;7.57;;
20421;SDS011;10370;53.102;18.034;2023-12-29T22:29:21;14.55;;;6.82;;
20421;SDS011;10370;53.102;18.034;2023-12-29T22:34:44;9.10;;;4.40;;
20421;SDS011;10370;53.102;18.034;2023-12-29T22:40:07;17.10;;;7.18;;
20421;SDS011;10370;53.102;18.034;2023-12-29T22:45:31;13.13;;;6.65;;
20421;SDS011;10370;53.102;18.034;2023-12-29T22:50:54;10.20;;;4.25;;
20421;SDS011;10370;53.102;18.034;2023-12-29T22:56:17;5.15;;;3.25;;
20421;SDS011;10370;53.102;18.034;2023-12-29T23:01:40;3.50;;;2.60;;
20421;SDS011;10370;53.102;18.034;2023-12-29T23:07:03;3.63;;;2.28;;
20421;SDS011;10370;53.102;18.034;2023-12-29T23:12:26;3.22;;;2.50;;
20421;SDS011;10370;53.102;18.034;2023-12-29T23:17:49;6.90;;;2.90;;
20421;SDS011;10370;53.102;18.034;2023-12-29T23:23:12;6.80;;;3.50;;
20421;SDS011;10370;53.102;18.034;2023-12-29T23:28:35;5.20;;;2.92;;
20421;SDS011;10370;53.102;18.034;2023-12-29T23:33:58;6.75;;;3.20;;
20421;SDS011;10370;53.102;18.034;2023-12-29T23:39:20;3.72;;;2.28;;
20421;SDS011;10370;53.102;18.034;2023-12-29T23:44:43;5.03;;;2.70;;
20421;SDS011;10370;53.102;18.034;2023-12-29T23:50:06;4.78;;;2.40;;
20421;SDS011;10370;53.102;18.034;2023-12-29T23:55:30;4.18;;;2.53;;
